sensor_id;sensor_type;location;lat;lon;timestamp;pressure;altitude;pressure_sealevel;temperature;humidity
38225;BME280;24025;48.138;11.428;2023-05-10T00:02:20;94937.59;;;14.03;99.88
38225;BME280;24025;48.138;11.428;2023-05-10T00:04:51;94942.91;;;14.10;100.00
38225;BME280;24025;48.138;11.428;2023-05-10T00:07:23;94942.13;;;14.10;99.29
38225;BME280;24025;48.138;11.428;2023-05-10T00:09:55;94945.63;;;14.03;99.88
38225;BME280;24025;48.138;11.428;2023-05-10T00:12:28;94936.88;;;13.99;98.89
38225;BME280;24025;48.138;11.428;2023-05-10T00:14:59;94942.66;;;13.94;99.79
38225;BME280;24025;48.138;11.428;2023-05-10T00:17:31;94937.69;;;13.96;100.00
38225;BME280;24025;48.138;11.428;2023-05-10T00:20:03;94936.25;;;13.88;99.90
38225;BME280;24025;48.138;11.428;2023-05-10T00:22:36;94931.72;;;13.78;99.96
38225;BME280;24025;48.138;11.428;2023-05-10T00:25:08;94929.78;;;13.82;100.00
38225;BME280;24025;48.138;11.428;2023-05-10T00:27:40;94924.47;;;13.75;99.38
38225;BME280;24025;48.138;11.428;2023-05-10T00:30:11;94926.84;;;13.66;100.00
38225;BME280;24025;48.138;11.428;2023-05-10T00:32:43;94926.00;;;13.76;100.00
38225;BME280;24025;48.138;11.428;2023-05-10T00:35:15;94926.06;;;13.69;100.00
38225;BME280;24025;48.138;11.428;2023-05-10T00:37:46;94921.84;;;13.68;100.00
38225;BME280;24025;48.138;11.428;2023-05-10T00:40:18;94924.88;;;13.73;100.00
38225;BME280;24025;48.138;11.428;2023-05-10T00:42:49;94927.22;;;13.68;100.00
38225;BME280;24025;48.138;11.428;2023-05-10T00:45:21;94925.75;;;13.63;100.00
38225;BME280;24025;48.138;11.428;2023-05-10T00:47:52;94919.28;;;13.57;100.00
38225;BME280;24025;48.138;11.428;2023-05-10T00:50:26;94921.84;;;13.68;100.00
38225;BME280;24025;48.138;11.428;2023-05-10T00:52:58;94924.97;;;13.63;100.00
38225;BME280;24025;48.138;11.428;2023-05-10T00:55:30;94917.75;;;13.56;100.00
38225;BME280;24025;48.138;11.428;2023-05-10T00:58:02;94919.25;;;13.60;100.00
38225;BME280;24025;48.138;11.428;2023-05-10T01:00:34;94914.28;;;13.59;100.00
38225;BME280;24025;48.138;11.428;2023-05-10T01:03:06;94916.59;;;13.60;100.00
38225;BME280;24025;48.138;11.428;2023-05-10T01:05:38;94922.00;;;13.53;99.99
38225;BME280;24025;48.138;11.428;2023-05-10T01:08:09;94917.50;;;13.43;99.90
38225;BME280;24025;48.138;11.428;2023-05-10T01:10:41;94915.59;;;13.40;100.00
38225;BME280;24025;48.138;11.428;2023-05-10T01:13:13;94913.72;;;13.37;100.00
38225;BME280;24025;48.138;11.428;2023-05-10T01:15:46;94915.59;;;13.40;100.00
38225;BME280;24025;48.138;11.428;2023-05-10T01:18:18;94917.56;;;13.32;100.00
38225;BME280;24025;48.138;11.428;2023-05-10T01:20:55;94913.72;;;13.33;100.00
38225;BME280;24025;48.138;11.428;2023-05-10T01:26:17;94917.53;;;13.36;100.00
38225;BME280;24025;48.138;11.428;2023-05-10T01:33:59;94911.88;;;13.27;100.00
38225;BME280;24025;48.138;11.428;2023-05-10T01:36:37;94920.31;;;13.18;100.00
38225;BME280;24025;48.138;11.428;2023-05-10T01:39:18;94911.94;;;13.13;100.00
38225;BME280;24025;48.138;11.428;2023-05-10T01:44:31;94916.22;;;13.03;100.00
38225;BME280;24025;48.138;11.428;2023-05-10T01:47:10;94908.25;;;12.92;100.00
38225;BME280;24025;48.138;11.428;2023-05-10T01:49:47;94913.94;;;12.98;100.00
38225;BME280;24025;48.138;11.428;2023-05-10T01:52:22;94911.22;;;13.05;100.00
38225;BME280;24025;48.138;11.428;2023-05-10T01:55:00;94915.81;;;13.08;100.00
38225;BME280;24025;48.138;11.428;2023-05-10T01:57:33;94911.53;;;13.18;100.00
38225;BME280;24025;48.138;11.428;2023-05-10T02:00:05;94916.88;;;13.21;100.00
38225;BME280;24025;48.138;11.428;2023-05-10T02:02:38;94917.63;;;13.25;100.00
38225;BME280;24025;48.138;11.428;2023-05-10T02:05:11;94916.03;;;13.31;100.00
38225;BME280;24025;48.138;11.428;2023-05-10T02:07:44;94915.22;;;13.38;100.00
38225;BME280;24025;48.138;11.428;2023-05-10T02:10:16;94914.41;;;13.41;100.00
38225;BME280;24025;48.138;11.428;2023-05-10T02:12:49;94923.97;;;13.42;100.00
38225;BME280;24025;48.138;11.428;2023-05-10T02:15:22;94917.09;;;13.41;100.00
38225;BME280;24025;48.138;11.428;2023-05-10T02:17:54;94915.97;;;13.39;100.00
38225;BME280;24025;48.138;11.428;2023-05-10T02:20:26;94924.03;;;13.39;99.93
38225;BME280;24025;48.138;11.428;2023-05-10T02:22:58;94921.06;;;13.22;100.00
38225;BME280;24025;48.138;11.428;2023-05-10T02:25:31;94925.31;;;13.20;100.00
38225;BME280;24025;48.138;11.428;2023-05-10T02:28:04;94920.72;;;13.17;100.00
38225;BME280;24025;48.138;11.428;2023-05-10T02:30:37;94919.91;;;13.23;100.00
38225;BME280;24025;48.138;11.428;2023-05-10T02:33:08;94917.63;;;13.25;100.00
38225;BME280;24025;48.138;11.428;2023-05-10T02:35:40;94918.34;;;13.29;100.00
38225;BME280;24025;48.138;11.428;2023-05-10T02:38:12;94916.09;;;13.24;100.00
38225;BME280;24025;48.138;11.428;2023-05-10T02:40:44;94919.16;;;13.26;100.00
38225;BME280;24025;48.138;11.428;2023-05-10T02:43:18;94916.13;;;13.21;100.00
38225;BME280;24025;48.138;11.428;2023-05-10T02:45:50;94919.53;;;13.25;100.00
38225;BME280;24025;48.138;11.428;2023-05-10T02:48:22;94918.03;;;13.20;100.00
38225;BME280;24025;48.138;11.428;2023-05-10T02:50:53;94919.94;;;13.20;100.00
38225;BME280;24025;48.138;11.428;2023-05-10T02:53:30;94920.72;;;13.17;100.00
38225;BME280;24025;48.138;11.428;2023-05-10T02:56:04;94923.06;;;13.08;100.00
38225;BME280;24025;48.138;11.428;2023-05-10T02:58:38;94924.97;;;13.07;100.00
38225;BME280;24025;48.138;11.428;2023-05-10T03:01:09;94927.66;;;13.07;100.00
38225;BME280;24025;48.138;11.428;2023-05-10T03:03:41;94915.84;;;12.97;100.00
38225;BME280;24025;48.138;11.428;2023-05-10T03:06:13;94924.28;;;12.99;100.00
38225;BME280;24025;48.138;11.428;2023-05-10T03:08:44;94920.03;;;13.02;100.00
38225;BME280;24025;48.138;11.428;2023-05-10T03:11:21;94925.00;;;13.03;100.00
38225;BME280;24025;48.138;11.428;2023-05-10T03:16:46;94928.44;;;13.08;100.00
38225;BME280;24025;48.138;11.428;2023-05-10T03:19:22;94931.50;;;13.02;100.00
38225;BME280;24025;48.138;11.428;2023-05-10T03:21:55;94923.81;;;13.12;100.00
38225;BME280;24025;48.138;11.428;2023-05-10T03:24:29;94927.69;;;13.03;100.00
38225;BME280;24025;48.138;11.428;2023-05-10T03:27:02;94935.34;;;13.01;100.00
38225;BME280;24025;48.138;11.428;2023-05-10T03:29:35;94933.44;;;13.02;100.00
38225;BME280;24025;48.138;11.428;2023-05-10T03:32:07;94936.09;;;12.98;100.00
38225;BME280;24025;48.138;11.428;2023-05-10T03:34:42;94935.78;;;12.93;100.00
38225;BME280;24025;48.138;11.428;2023-05-10T03:37:16;94940.72;;;12.94;100.00
38225;BME280;24025;48.138;11.428;2023-05-10T03:39:48;94941.88;;;12.93;100.00
38225;BME280;24025;48.138;11.428;2023-05-10T03:42:19;94945.28;;;12.97;100.00
38225;BME280;24025;48.138;11.428;2023-05-10T03:44:51;94942.63;;;12.97;100.00
38225;BME280;24025;48.138;11.428;2023-05-10T03:47:22;94949.16;;;12.93;100.00
38225;BME280;24025;48.138;11.428;2023-05-10T03:49:54;94957.59;;;12.91;100.00
38225;BME280;24025;48.138;11.428;2023-05-10T03:52:25;94949.97;;;12.83;100.00
38225;BME280;24025;48.138;11.428;2023-05-10T03:54:56;94957.59;;;12.84;100.00
38225;BME280;24025;48.138;11.428;2023-05-10T03:57:28;94953.00;;;12.88;100.00
38225;BME280;24025;48.138;11.428;2023-05-10T04:00:03;94955.34;;;12.79;100.00
38225;BME280;24025;48.138;11.428;2023-05-10T04:02:35;94961.88;;;12.71;100.00
38225;BME280;24025;48.138;11.428;2023-05-10T04:05:07;94965.34;;;12.64;100.00
38225;BME280;24025;48.138;11.428;2023-05-10T04:07:38;94962.28;;;12.62;100.00
38225;BME280;24025;48.138;11.428;2023-05-10T04:10:10;94959.97;;;12.68;100.00
38225;BME280;24025;48.138;11.428;2023-05-10T04:12:45;94956.50;;;12.74;100.00
38225;BME280;24025;48.138;11.428;2023-05-10T04:15:16;94963.34;;;12.83;100.00
38225;BME280;24025;48.138;11.428;2023-05-10T04:17:47;94964.53;;;12.71;100.00
38225;BME280;24025;48.138;11.428;2023-05-10T04:20:19;94956.88;;;12.76;100.00
38225;BME280;24025;48.138;11.428;2023-05-10T04:22:50;94963.75;;;12.77;100.00
38225;BME280;24025;48.138;11.428;2023-05-10T04:25:22;94965.66;;;12.77;100.00
38225;BME280;24025;48.138;11.428;2023-05-10T04:27:53;94964.50;;;12.78;100.00
38225;BME280;24025;48.138;11.428;2023-05-10T04:30:24;66607.47;;;-143.80;100.00
38225;BME280;24025;48.138;11.428;2023-05-10T04:32:56;66607.47;;;-143.80;100.00
38225;BME280;24025;48.138;11.428;2023-05-10T04:35:27;66607.47;;;-143.80;100.00
38225;BME280;24025;48.138;11.428;2023-05-10T04:37:59;66607.47;;;-143.80;100.00
38225;BME280;24025;48.138;11.428;2023-05-10T04:40:30;66607.47;;;-143.80;100.00
38225;BME280;24025;48.138;11.428;2023-05-10T04:43:02;66607.47;;;-143.80;100.00
38225;BME280;24025;48.138;11.428;2023-05-10T04:45:33;66607.47;;;-143.80;100.00
38225;BME280;24025;48.138;11.428;2023-05-10T04:48:04;66607.47;;;-143.80;100.00
38225;BME280;24025;48.138;11.428;2023-05-10T04:50:36;66607.47;;;-143.80;100.00
38225;BME280;24025;48.138;11.428;2023-05-10T04:53:07;66607.47;;;-143.80;100.00
38225;BME280;24025;48.138;11.428;2023-05-10T04:55:39;66607.47;;;-143.80;100.00
38225;BME280;24025;48.138;11.428;2023-05-10T04:58:10;66607.47;;;-143.80;100.00
38225;BME280;24025;48.138;11.428;2023-05-10T05:00:41;66607.47;;;-143.80;100.00
38225;BME280;24025;48.138;11.428;2023-05-10T05:03:13;66607.47;;;-143.80;100.00
38225;BME280;24025;48.138;11.428;2023-05-10T05:05:45;66607.47;;;-143.80;100.00
38225;BME280;24025;48.138;11.428;2023-05-10T05:08:16;66607.47;;;-143.80;100.00
38225;BME280;24025;48.138;11.428;2023-05-10T05:10:48;66607.47;;;-143.80;100.00
38225;BME280;24025;48.138;11.428;2023-05-10T05:13:21;66607.47;;;-143.80;100.00
38225;BME280;24025;48.138;11.428;2023-05-10T05:15:53;66607.47;;;-143.80;100.00
38225;BME280;24025;48.138;11.428;2023-05-10T05:18:24;66607.47;;;-143.80;100.00
38225;BME280;24025;48.138;11.428;2023-05-10T05:20:56;66607.47;;;-143.80;100.00
38225;BME280;24025;48.138;11.428;2023-05-10T05:23:27;66607.47;;;-143.80;100.00
38225;BME280;24025;48.138;11.428;2023-05-10T05:25:58;66607.47;;;-143.80;100.00
38225;BME280;24025;48.138;11.428;2023-05-10T05:28:30;66607.47;;;-143.80;100.00
38225;BME280;24025;48.138;11.428;2023-05-10T05:31:04;66607.47;;;-143.80;100.00
38225;BME280;24025;48.138;11.428;2023-05-10T05:33:36;66607.47;;;-143.80;100.00
38225;BME280;24025;48.138;11.428;2023-05-10T05:36:08;66607.47;;;-143.80;100.00
38225;BME280;24025;48.138;11.428;2023-05-10T05:38:39;66607.47;;;-143.80;100.00
38225;BME280;24025;48.138;11.428;2023-05-10T05:41:11;66607.47;;;-143.80;100.00
38225;BME280;24025;48.138;11.428;2023-05-10T05:43:43;66607.47;;;-143.80;100.00
38225;BME280;24025;48.138;11.428;2023-05-10T05:46:14;66607.47;;;-143.80;100.00
38225;BME280;24025;48.138;11.428;2023-05-10T05:48:46;66607.47;;;-143.80;100.00
38225;BME280;24025;48.138;11.428;2023-05-10T05:51:18;66607.47;;;-143.80;100.00
38225;BME280;24025;48.138;11.428;2023-05-10T05:53:49;66607.47;;;-143.80;100.00
38225;BME280;24025;48.138;11.428;2023-05-10T05:56:20;66607.47;;;-143.80;100.00
38225;BME280;24025;48.138;11.428;2023-05-10T05:58:55;66607.47;;;-143.80;100.00
38225;BME280;24025;48.138;11.428;2023-05-10T06:01:27;66607.47;;;-143.80;100.00
38225;BME280;24025;48.138;11.428;2023-05-10T06:03:58;66607.47;;;-143.80;100.00
38225;BME280;24025;48.138;11.428;2023-05-10T06:06:30;66607.47;;;-143.80;100.00
38225;BME280;24025;48.138;11.428;2023-05-10T06:09:03;66607.47;;;-143.80;100.00
38225;BME280;24025;48.138;11.428;2023-05-10T06:11:34;66607.47;;;-143.80;100.00
38225;BME280;24025;48.138;11.428;2023-05-10T06:14:06;66607.47;;;-143.80;100.00
38225;BME280;24025;48.138;11.428;2023-05-10T06:16:38;66607.47;;;-143.80;100.00
38225;BME280;24025;48.138;11.428;2023-05-10T06:19:10;66607.47;;;-143.80;100.00
38225;BME280;24025;48.138;11.428;2023-05-10T06:21:41;66607.47;;;-143.80;100.00
38225;BME280;24025;48.138;11.428;2023-05-10T06:24:13;66607.47;;;-143.80;100.00
38225;BME280;24025;48.138;11.428;2023-05-10T06:26:44;66607.47;;;-143.80;100.00
38225;BME280;24025;48.138;11.428;2023-05-10T06:29:16;66607.47;;;-143.80;100.00
38225;BME280;24025;48.138;11.428;2023-05-10T06:31:47;66607.47;;;-143.80;100.00
38225;BME280;24025;48.138;11.428;2023-05-10T06:34:19;66607.47;;;-143.80;100.00
38225;BME280;24025;48.138;11.428;2023-05-10T06:36:50;66607.47;;;-143.80;100.00
38225;BME280;24025;48.138;11.428;2023-05-10T06:39:22;66607.47;;;-143.80;100.00
38225;BME280;24025;48.138;11.428;2023-05-10T06:41:54;66607.47;;;-143.80;100.00
38225;BME280;24025;48.138;11.428;2023-05-10T06:44:25;66607.47;;;-143.80;100.00
38225;BME280;24025;48.138;11.428;2023-05-10T06:46:57;66607.47;;;-143.80;100.00
38225;BME280;24025;48.138;11.428;2023-05-10T06:49:28;66607.47;;;-143.80;100.00
38225;BME280;24025;48.138;11.428;2023-05-10T06:52:00;66607.47;;;-143.80;100.00
38225;BME280;24025;48.138;11.428;2023-05-10T06:54:31;66607.47;;;-143.80;100.00
38225;BME280;24025;48.138;11.428;2023-05-10T06:57:03;66607.47;;;-143.80;100.00
38225;BME280;24025;48.138;11.428;2023-05-10T06:59:46;66607.47;;;-143.80;100.00
38225;BME280;24025;48.138;11.428;2023-05-10T07:02:18;66607.47;;;-143.80;100.00
38225;BME280;24025;48.138;11.428;2023-05-10T07:04:49;66607.47;;;-143.80;100.00
38225;BME280;24025;48.138;11.428;2023-05-10T07:07:23;66607.47;;;-143.80;100.00
38225;BME280;24025;48.138;11.428;2023-05-10T07:09:54;66607.47;;;-143.80;100.00
38225;BME280;24025;48.138;11.428;2023-05-10T07:12:25;66607.47;;;-143.80;100.00
38225;BME280;24025;48.138;11.428;2023-05-10T07:14:57;66607.47;;;-143.80;100.00
38225;BME280;24025;48.138;11.428;2023-05-10T07:17:28;66607.47;;;-143.80;100.00
38225;BME280;24025;48.138;11.428;2023-05-10T07:20:00;66607.47;;;-143.80;100.00
38225;BME280;24025;48.138;11.428;2023-05-10T07:22:32;66607.47;;;-143.80;100.00
38225;BME280;24025;48.138;11.428;2023-05-10T07:25:03;66607.47;;;-143.80;100.00
38225;BME280;24025;48.138;11.428;2023-05-10T07:27:35;66607.47;;;-143.80;100.00
38225;BME280;24025;48.138;11.428;2023-05-10T07:30:07;66607.47;;;-143.80;100.00
38225;BME280;24025;48.138;11.428;2023-05-10T07:32:39;66607.47;;;-143.80;100.00
38225;BME280;24025;48.138;11.428;2023-05-10T07:35:13;66607.47;;;-143.80;100.00
38225;BME280;24025;48.138;11.428;2023-05-10T07:37:45;66607.47;;;-143.80;100.00
38225;BME280;24025;48.138;11.428;2023-05-10T07:40:16;66607.47;;;-143.80;100.00
38225;BME280;24025;48.138;11.428;2023-05-10T07:42:47;66607.47;;;-143.80;100.00
38225;BME280;24025;48.138;11.428;2023-05-10T07:45:19;66607.47;;;-143.80;100.00
38225;BME280;24025;48.138;11.428;2023-05-10T07:47:50;66607.47;;;-143.80;100.00
38225;BME280;24025;48.138;11.428;2023-05-10T07:50:22;66607.47;;;-143.80;100.00
38225;BME280;24025;48.138;11.428;2023-05-10T07:52:53;66607.47;;;-143.80;100.00
38225;BME280;24025;48.138;11.428;2023-05-10T07:55:25;66607.47;;;-143.80;100.00
38225;BME280;24025;48.138;11.428;2023-05-10T07:57:57;66607.47;;;-143.80;100.00
38225;BME280;24025;48.138;11.428;2023-05-10T08:00:28;66607.47;;;-143.80;100.00
38225;BME280;24025;48.138;11.428;2023-05-10T08:03:00;66607.47;;;-143.80;100.00
38225;BME280;24025;48.138;11.428;2023-05-10T08:05:31;66607.47;;;-143.80;100.00
38225;BME280;24025;48.138;11.428;2023-05-10T08:08:06;66607.47;;;-143.80;100.00
38225;BME280;24025;48.138;11.428;2023-05-10T08:10:37;66607.47;;;-143.80;100.00
38225;BME280;24025;48.138;11.428;2023-05-10T08:13:08;66607.47;;;-143.80;100.00
38225;BME280;24025;48.138;11.428;2023-05-10T08:15:40;66607.47;;;-143.80;100.00
38225;BME280;24025;48.138;11.428;2023-05-10T08:18:11;66607.47;;;-143.80;100.00
38225;BME280;24025;48.138;11.428;2023-05-10T08:20:43;66607.47;;;-143.80;100.00
38225;BME280;24025;48.138;11.428;2023-05-10T08:23:14;66607.47;;;-143.80;100.00
38225;BME280;24025;48.138;11.428;2023-05-10T08:25:45;66607.47;;;-143.80;100.00
38225;BME280;24025;48.138;11.428;2023-05-10T08:28:17;66607.47;;;-143.80;100.00
38225;BME280;24025;48.138;11.428;2023-05-10T08:30:49;66607.47;;;-143.80;100.00
38225;BME280;24025;48.138;11.428;2023-05-10T08:33:21;66607.47;;;-143.80;100.00
38225;BME280;24025;48.138;11.428;2023-05-10T08:35:52;66607.47;;;-143.80;100.00
38225;BME280;24025;48.138;11.428;2023-05-10T08:38:24;66607.47;;;-143.80;100.00
38225;BME280;24025;48.138;11.428;2023-05-10T08:40:56;66607.47;;;-143.80;100.00
38225;BME280;24025;48.138;11.428;2023-05-10T08:43:28;66607.47;;;-143.80;100.00
38225;BME280;24025;48.138;11.428;2023-05-10T08:46:00;66607.47;;;-143.80;100.00
38225;BME280;24025;48.138;11.428;2023-05-10T08:48:34;66607.47;;;-143.80;100.00
38225;BME280;24025;48.138;11.428;2023-05-10T08:51:06;66607.47;;;-143.80;100.00
38225;BME280;24025;48.138;11.428;2023-05-10T08:53:39;66607.47;;;-143.80;100.00
38225;BME280;24025;48.138;11.428;2023-05-10T08:56:12;66607.47;;;-143.80;100.00
38225;BME280;24025;48.138;11.428;2023-05-10T08:58:44;66607.47;;;-143.80;100.00
38225;BME280;24025;48.138;11.428;2023-05-10T09:01:16;66607.47;;;-143.80;100.00
38225;BME280;24025;48.138;11.428;2023-05-10T09:03:48;66607.47;;;-143.80;100.00
38225;BME280;24025;48.138;11.428;2023-05-10T09:06:19;66607.47;;;-143.80;100.00
38225;BME280;24025;48.138;11.428;2023-05-10T09:08:51;66607.47;;;-143.80;100.00
38225;BME280;24025;48.138;11.428;2023-05-10T09:11:23;66607.47;;;-143.80;100.00
38225;BME280;24025;48.138;11.428;2023-05-10T09:13:55;66607.47;;;-143.80;100.00
38225;BME280;24025;48.138;11.428;2023-05-10T09:16:27;66607.47;;;-143.80;100.00
38225;BME280;24025;48.138;11.428;2023-05-10T09:19:00;66607.47;;;-143.80;100.00
38225;BME280;24025;48.138;11.428;2023-05-10T09:21:31;66607.47;;;-143.80;100.00
38225;BME280;24025;48.138;11.428;2023-05-10T09:24:03;66607.47;;;-143.80;100.00
38225;BME280;24025;48.138;11.428;2023-05-10T09:26:39;66607.47;;;-143.80;100.00
38225;BME280;24025;48.138;11.428;2023-05-10T09:29:16;66607.47;;;-143.80;100.00
38225;BME280;24025;48.138;11.428;2023-05-10T09:31:49;66607.47;;;-143.80;100.00
38225;BME280;24025;48.138;11.428;2023-05-10T09:34:31;66607.47;;;-143.80;100.00
38225;BME280;24025;48.138;11.428;2023-05-10T09:37:03;66607.47;;;-143.80;100.00
38225;BME280;24025;48.138;11.428;2023-05-10T09:39:36;66607.47;;;-143.80;100.00
38225;BME280;24025;48.138;11.428;2023-05-10T09:42:08;66607.47;;;-143.80;100.00
38225;BME280;24025;48.138;11.428;2023-05-10T09:44:40;66607.47;;;-143.80;100.00
38225;BME280;24025;48.138;11.428;2023-05-10T09:47:16;66607.47;;;-143.80;100.00
38225;BME280;24025;48.138;11.428;2023-05-10T09:49:52;66607.47;;;-143.80;100.00
38225;BME280;24025;48.138;11.428;2023-05-10T09:52:24;66607.47;;;-143.80;100.00
38225;BME280;24025;48.138;11.428;2023-05-10T09:54:56;66607.47;;;-143.80;100.00
38225;BME280;24025;48.138;11.428;2023-05-10T09:57:28;66607.47;;;-143.80;100.00
38225;BME280;24025;48.138;11.428;2023-05-10T10:00:00;66607.47;;;-143.80;100.00
38225;BME280;24025;48.138;11.428;2023-05-10T10:02:31;66607.47;;;-143.80;100.00
38225;BME280;24025;48.138;11.428;2023-05-10T10:05:03;66607.47;;;-143.80;100.00
38225;BME280;24025;48.138;11.428;2023-05-10T10:07:35;66607.47;;;-143.80;100.00
38225;BME280;24025;48.138;11.428;2023-05-10T10:10:07;66607.47;;;-143.80;100.00
38225;BME280;24025;48.138;11.428;2023-05-10T10:12:42;66607.47;;;-143.80;100.00
38225;BME280;24025;48.138;11.428;2023-05-10T10:15:15;66607.47;;;-143.80;100.00
38225;BME280;24025;48.138;11.428;2023-05-10T10:17:48;66607.47;;;-143.80;100.00
38225;BME280;24025;48.138;11.428;2023-05-10T10:20:20;66607.47;;;-143.80;100.00
38225;BME280;24025;48.138;11.428;2023-05-10T10:22:52;66607.47;;;-143.80;100.00
38225;BME280;24025;48.138;11.428;2023-05-10T10:25:24;66607.47;;;-143.80;100.00
38225;BME280;24025;48.138;11.428;2023-05-10T10:30:46;66607.47;;;-143.80;100.00
38225;BME280;24025;48.138;11.428;2023-05-10T10:36:11;66607.47;;;-143.80;100.00
38225;BME280;24025;48.138;11.428;2023-05-10T10:41:27;66607.47;;;-143.80;100.00
38225;BME280;24025;48.138;11.428;2023-05-10T10:49:32;66607.47;;;-143.80;100.00
38225;BME280;24025;48.138;11.428;2023-05-10T10:52:14;66607.47;;;-143.80;100.00
38225;BME280;24025;48.138;11.428;2023-05-10T10:54:50;66607.47;;;-143.80;100.00
38225;BME280;24025;48.138;11.428;2023-05-10T10:57:22;66607.47;;;-143.80;100.00
38225;BME280;24025;48.138;11.428;2023-05-10T11:00:17;66607.47;;;-143.80;100.00
38225;BME280;24025;48.138;11.428;2023-05-10T11:02:46;66607.47;;;-143.80;100.00
38225;BME280;24025;48.138;11.428;2023-05-10T11:07:59;66607.47;;;-143.80;100.00
38225;BME280;24025;48.138;11.428;2023-05-10T11:10:30;66607.47;;;-143.80;100.00
38225;BME280;24025;48.138;11.428;2023-05-10T11:13:03;66607.47;;;-143.80;100.00
38225;BME280;24025;48.138;11.428;2023-05-10T11:15:36;66607.47;;;-143.80;100.00
38225;BME280;24025;48.138;11.428;2023-05-10T11:18:24;66607.47;;;-143.80;100.00
38225;BME280;24025;48.138;11.428;2023-05-10T11:20:57;66607.47;;;-143.80;100.00
38225;BME280;24025;48.138;11.428;2023-05-10T11:23:47;66607.47;;;-143.80;100.00
38225;BME280;24025;48.138;11.428;2023-05-10T11:26:19;66607.47;;;-143.80;100.00
38225;BME280;24025;48.138;11.428;2023-05-10T11:28:54;66607.47;;;-143.80;100.00
38225;BME280;24025;48.138;11.428;2023-05-10T11:31:30;66607.47;;;-143.80;100.00
38225;BME280;24025;48.138;11.428;2023-05-10T11:34:02;66607.47;;;-143.80;100.00
38225;BME280;24025;48.138;11.428;2023-05-10T11:36:34;66607.47;;;-143.80;100.00
38225;BME280;24025;48.138;11.428;2023-05-10T11:39:07;66607.47;;;-143.80;100.00
38225;BME280;24025;48.138;11.428;2023-05-10T11:41:39;66607.47;;;-143.80;100.00
38225;BME280;24025;48.138;11.428;2023-05-10T11:44:13;66607.47;;;-143.80;100.00
38225;BME280;24025;48.138;11.428;2023-05-10T11:46:44;66607.47;;;-143.80;100.00
38225;BME280;24025;48.138;11.428;2023-05-10T11:49:16;66607.47;;;-143.80;100.00
38225;BME280;24025;48.138;11.428;2023-05-10T11:51:47;66607.47;;;-143.80;100.00
38225;BME280;24025;48.138;11.428;2023-05-10T11:54:19;66607.47;;;-143.80;100.00
38225;BME280;24025;48.138;11.428;2023-05-10T11:56:50;66607.47;;;-143.80;100.00
38225;BME280;24025;48.138;11.428;2023-05-10T11:59:22;66607.47;;;-143.80;100.00
38225;BME280;24025;48.138;11.428;2023-05-10T12:01:53;66607.47;;;-143.80;100.00
38225;BME280;24025;48.138;11.428;2023-05-10T12:04:25;66607.47;;;-143.80;100.00
38225;BME280;24025;48.138;11.428;2023-05-10T12:06:57;66607.47;;;-143.80;100.00
38225;BME280;24025;48.138;11.428;2023-05-10T12:09:29;66607.47;;;-143.80;100.00
38225;BME280;24025;48.138;11.428;2023-05-10T12:12:17;66607.47;;;-143.80;100.00
38225;BME280;24025;48.138;11.428;2023-05-10T12:14:49;66607.47;;;-143.80;100.00
38225;BME280;24025;48.138;11.428;2023-05-10T12:17:21;66607.47;;;-143.80;100.00
38225;BME280;24025;48.138;11.428;2023-05-10T12:19:52;66607.47;;;-143.80;100.00
38225;BME280;24025;48.138;11.428;2023-05-10T12:22:26;66607.47;;;-143.80;100.00
38225;BME280;24025;48.138;11.428;2023-05-10T12:24:58;66607.47;;;-143.80;100.00
38225;BME280;24025;48.138;11.428;2023-05-10T12:27:33;66607.47;;;-143.80;100.00
38225;BME280;24025;48.138;11.428;2023-05-10T12:30:05;66607.47;;;-143.80;100.00
38225;BME280;24025;48.138;11.428;2023-05-10T12:32:39;66607.47;;;-143.80;100.00
38225;BME280;24025;48.138;11.428;2023-05-10T12:35:12;66607.47;;;-143.80;100.00
38225;BME280;24025;48.138;11.428;2023-05-10T12:37:43;66607.47;;;-143.80;100.00
38225;BME280;24025;48.138;11.428;2023-05-10T12:40:16;66607.47;;;-143.80;100.00
38225;BME280;24025;48.138;11.428;2023-05-10T12:42:49;66607.47;;;-143.80;100.00
38225;BME280;24025;48.138;11.428;2023-05-10T12:45:21;66607.47;;;-143.80;100.00
38225;BME280;24025;48.138;11.428;2023-05-10T12:47:53;66607.47;;;-143.80;100.00
38225;BME280;24025;48.138;11.428;2023-05-10T12:50:24;66607.47;;;-143.80;100.00
38225;BME280;24025;48.138;11.428;2023-05-10T12:52:56;66607.47;;;-143.80;100.00
38225;BME280;24025;48.138;11.428;2023-05-10T12:55:27;66607.47;;;-143.80;100.00
38225;BME280;24025;48.138;11.428;2023-05-10T12:57:58;66607.47;;;-143.80;100.00
38225;BME280;24025;48.138;11.428;2023-05-10T13:00:30;66607.47;;;-143.80;100.00
38225;BME280;24025;48.138;11.428;2023-05-10T13:03:01;66607.47;;;-143.80;100.00
38225;BME280;24025;48.138;11.428;2023-05-10T13:05:33;66607.47;;;-143.80;100.00
38225;BME280;24025;48.138;11.428;2023-05-10T13:08:04;66607.47;;;-143.80;100.00
38225;BME280;24025;48.138;11.428;2023-05-10T13:10:36;66607.47;;;-143.80;100.00
38225;BME280;24025;48.138;11.428;2023-05-10T13:13:07;66607.47;;;-143.80;100.00
38225;BME280;24025;48.138;11.428;2023-05-10T13:15:39;66607.47;;;-143.80;100.00
38225;BME280;24025;48.138;11.428;2023-05-10T13:18:10;66607.47;;;-143.80;100.00
38225;BME280;24025;48.138;11.428;2023-05-10T13:20:42;66607.47;;;-143.80;100.00
38225;BME280;24025;48.138;11.428;2023-05-10T13:23:15;66607.47;;;-143.80;100.00
38225;BME280;24025;48.138;11.428;2023-05-10T13:25:47;66607.47;;;-143.80;100.00